Time;durP1;ratioP1;P1;durP2;ratioP2;P2;SDS_P1;SDS_P2;PMS_P1;PMS_P2;Temp;Humidity;BMP_temperature;BMP_pressure;BME280_temperature;BME280_humidity;BME280_pressure;Samples;Min_cycle;Max_cycle;Signal;HPM_P1;HPM_P2
2022/07/24 00:00:29;;;;;;;7.13;6.30;;;22.60;99.90;;;;;;5072812;28;20579;-73
2022/07/24 00:02:56;;;;;;;6.40;5.90;;;22.50;99.90;;;;;;5072694;28;20585;-73
2022/07/24 00:05:22;;;;;;;6.00;5.63;;;22.50;99.90;;;;;;5072392;28;20665;-73
2022/07/24 00:07:49;;;;;;;9.73;6.23;;;22.50;99.90;;;;;;5071747;28;20621;-73
2022/07/24 00:10:16;;;;;;;6.07;5.67;;;22.50;99.90;;;;;;5073057;28;20574;-73
2022/07/24 00:12:42;;;;;;;6.00;5.60;;;22.40;99.90;;;;;;5073914;28;20684;-73
2022/07/24 00:15:09;;;;;;;8.07;6.10;;;22.40;99.90;;;;;;5075199;28;20606;-72
2022/07/24 00:17:36;;;;;;;6.47;5.87;;;22.40;99.90;;;;;;5076940;28;20632;-73
2022/07/24 00:20:04;;;;;;;6.80;6.30;;;22.40;99.90;;;;;;5075132;28;20598;-73
2022/07/24 00:22:31;;;;;;;6.33;5.93;;;22.30;99.90;;;;;;5076780;28;20574;-74
2022/07/24 00:24:57;;;;;;;6.47;6.07;;;22.30;99.90;;;;;;5077128;28;21032;-73
2022/07/24 00:27:24;;;;;;;7.60;6.90;;;22.30;99.90;;;;;;5076919;28;20590;-73
2022/07/24 00:29:50;;;;;;;6.30;5.70;;;22.30;99.90;;;;;;5076627;28;20983;-73
2022/07/24 00:32:17;;;;;;;6.00;5.50;;;22.30;99.90;;;;;;5076404;28;21184;-73
2022/07/24 00:34:43;;;;;;;6.40;5.83;;;22.30;99.90;;;;;;5076605;28;21229;-73
2022/07/24 00:37:10;;;;;;;6.77;6.13;;;22.30;99.90;;;;;;5076531;28;21105;-73
2022/07/24 00:39:36;;;;;;;7.87;5.90;;;22.30;99.90;;;;;;5076540;28;20620;-73
2022/07/24 00:42:03;;;;;;;5.57;5.27;;;22.20;99.90;;;;;;5076620;28;20577;-73
2022/07/24 00:44:29;;;;;;;6.43;5.83;;;22.20;99.90;;;;;;5076583;28;20952;-73
2022/07/24 00:46:56;;;;;;;5.60;5.30;;;22.20;99.90;;;;;;5076129;28;20634;-73
2022/07/24 00:49:22;;;;;;;6.20;5.33;;;22.20;99.90;;;;;;5058379;28;20618;-73
2022/07/24 00:51:51;;;;;;;7.03;6.53;;;22.10;99.90;;;;;;5076232;28;20586;-74
2022/07/24 00:54:20;;;;;;;7.53;5.93;;;22.10;99.90;;;;;;5076078;28;20577;-73
2022/07/24 00:56:49;;;;;;;7.20;6.20;;;22.10;99.90;;;;;;5076477;28;20593;-73
2022/07/24 00:59:15;;;;;;;7.33;6.40;;;22.10;99.90;;;;;;5076458;28;20628;-73
2022/07/24 01:01:42;;;;;;;5.70;5.40;;;22.10;99.90;;;;;;5076395;28;20625;-75
2022/07/24 01:04:08;;;;;;;6.97;6.43;;;22.00;99.90;;;;;;5075950;28;20606;-75
2022/07/24 01:06:35;;;;;;;5.93;5.40;;;22.00;99.90;;;;;;5076578;28;20586;-74
2022/07/24 01:09:02;;;;;;;6.37;5.77;;;22.00;99.90;;;;;;5076288;28;20586;-74
2022/07/24 01:11:29;;;;;;;5.83;5.43;;;21.90;99.90;;;;;;5075528;28;20618;-74
2022/07/24 01:13:55;;;;;;;6.60;6.00;;;21.80;99.90;;;;;;5077456;28;20682;-74
2022/07/24 01:16:22;;;;;;;6.40;5.80;;;21.70;99.90;;;;;;5077532;28;20585;-74
2022/07/24 01:18:48;;;;;;;7.43;5.70;;;21.60;99.90;;;;;;5078563;28;20582;-75
2022/07/24 01:21:15;;;;;;;6.27;5.77;;;21.60;99.90;;;;;;5078419;28;20590;-74
2022/07/24 01:23:41;;;;;;;6.40;5.80;;;21.60;99.90;;;;;;5076391;28;20654;-74
2022/07/24 01:26:08;;;;;;;5.97;5.60;;;21.50;99.90;;;;;;5076848;28;20578;-74
2022/07/24 01:28:36;;;;;;;6.00;5.60;;;21.40;99.90;;;;;;5075796;28;20618;-74
2022/07/24 01:31:02;;;;;;;6.00;5.60;;;21.30;99.90;;;;;;5077273;28;21101;-74
2022/07/24 01:33:29;;;;;;;6.87;6.27;;;21.20;99.90;;;;;;5076268;28;20641;-74
2022/07/24 01:35:55;;;;;;;6.20;5.80;;;21.10;99.90;;;;;;5075284;28;20566;-73
2022/07/24 01:38:22;;;;;;;6.30;5.90;;;21.00;99.90;;;;;;5077348;28;20634;-73
2022/07/24 01:40:48;;;;;;;5.87;5.47;;;20.60;99.90;;;;;;5078456;28;20614;-73
2022/07/24 01:43:15;;;;;;;6.47;5.87;;;20.60;99.90;;;;;;5076880;28;20663;-73
2022/07/24 01:45:41;;;;;;;10.73;6.40;;;20.50;99.90;;;;;;5075636;28;20618;-73
2022/07/24 01:48:08;;;;;;;6.37;5.87;;;20.50;99.90;;;;;;5076759;28;20659;-73
2022/07/24 01:50:34;;;;;;;5.87;5.43;;;20.40;99.90;;;;;;5077389;28;20614;-73
2022/07/24 01:53:01;;;;;;;6.17;5.23;;;20.40;99.90;;;;;;5076213;28;20665;-73
2022/07/24 01:55:30;;;;;;;6.53;5.90;;;20.40;99.90;;;;;;5076149;28;20619;-73
2022/07/24 01:57:57;;;;;;;7.50;6.83;;;20.40;99.90;;;;;;5075482;28;20981;-73
2022/07/24 02:00:23;;;;;;;7.50;6.90;;;20.30;99.90;;;;;;5075172;28;20581;-74
2022/07/24 02:02:50;;;;;;;6.30;5.70;;;20.10;99.90;;;;;;5075142;28;21008;-73
2022/07/24 02:05:16;;;;;;;7.20;6.60;;;20.00;99.90;;;;;;5074910;28;20652;-73
2022/07/24 02:07:44;;;;;;;6.83;6.23;;;19.80;99.90;;;;;;5074830;28;20579;-73
2022/07/24 02:10:14;;;;;;;8.30;6.97;;;19.50;99.90;;;;;;5074788;28;21125;-75
2022/07/24 02:12:41;;;;;;;7.73;6.67;;;19.40;99.90;;;;;;5073170;28;20657;-73
2022/07/24 02:15:08;;;;;;;7.43;6.77;;;19.50;99.90;;;;;;5074385;28;21117;-73
2022/07/24 02:17:34;;;;;;;7.90;7.07;;;19.60;99.90;;;;;;5074416;28;20583;-73
2022/07/24 02:20:01;;;;;;;5.63;5.30;;;19.60;99.90;;;;;;5073998;28;20614;-73
2022/07/24 02:22:27;;;;;;;7.90;7.10;;;19.50;99.90;;;;;;5073424;28;20634;-73
2022/07/24 02:24:54;;;;;;;7.27;6.53;;;19.50;99.90;;;;;;5074620;28;20650;-73
2022/07/24 02:27:20;;;;;;;6.90;6.27;;;19.40;99.90;;;;;;5073953;28;20575;-73
2022/07/24 02:29:46;;;;;;;8.00;6.40;;;19.40;99.90;;;;;;5073482;28;20634;-73
2022/07/24 02:32:13;;;;;;;6.27;5.77;;;19.40;99.90;;;;;;5073295;28;20622;-73
2022/07/24 02:34:39;;;;;;;6.97;6.47;;;19.30;99.90;;;;;;5074199;28;20618;-73
2022/07/24 02:37:06;;;;;;;7.30;6.70;;;19.20;99.90;;;;;;5074187;28;20626;-73
2022/07/24 02:39:32;;;;;;;7.20;6.50;;;19.10;99.90;;;;;;5074348;28;20610;-73
2022/07/24 02:41:59;;;;;;;6.40;5.90;;;19.20;99.90;;;;;;5074239;28;20582;-73
2022/07/24 02:44:25;;;;;;;7.60;6.60;;;19.40;99.90;;;;;;5073854;28;21211;-73
2022/07/24 02:46:52;;;;;;;7.33;6.80;;;19.40;99.90;;;;;;5073772;28;20618;-74
2022/07/24 02:49:18;;;;;;;6.77;6.10;;;19.40;99.90;;;;;;5073349;28;20598;-73
2022/07/24 02:51:45;;;;;;;10.83;5.73;;;19.40;99.90;;;;;;5056895;28;20618;-73
2022/07/24 02:54:11;;;;;;;6.60;6.00;;;19.50;99.90;;;;;;5074442;28;20661;-74
2022/07/24 02:56:37;;;;;;;7.63;6.97;;;19.50;99.90;;;;;;5073839;28;20566;-74
2022/07/24 02:59:04;;;;;;;6.60;6.10;;;19.60;99.90;;;;;;5073385;28;20672;-74
2022/07/24 03:01:30;;;;;;;6.73;6.17;;;19.60;99.90;;;;;;5074728;28;20609;-74
2022/07/24 03:03:56;;;;;;;6.17;5.67;;;19.60;99.90;;;;;;5074114;28;20981;-74
2022/07/24 03:06:23;;;;;;;9.87;6.23;;;19.40;99.90;;;;;;5074006;28;20632;-74
2022/07/24 03:08:49;;;;;;;5.93;5.40;;;19.30;99.90;;;;;;5073928;28;21113;-74
2022/07/24 03:11:15;;;;;;;6.97;6.37;;;19.20;99.90;;;;;;5074020;28;20570;-74
2022/07/24 03:13:42;;;;;;;6.37;5.87;;;19.00;99.90;;;;;;5073634;28;20662;-74
2022/07/24 03:16:08;;;;;;;6.70;6.10;;;18.90;99.90;;;;;;5073943;28;20689;-73
2022/07/24 03:18:34;;;;;;;7.13;6.43;;;18.80;99.90;;;;;;5072127;28;20621;-74
2022/07/24 03:21:00;;;;;;;7.10;6.60;;;18.60;99.90;;;;;;5073959;28;20562;-74
2022/07/24 03:23:27;;;;;;;16.60;7.73;;;18.70;99.90;;;;;;5073621;28;20593;-74
2022/07/24 03:25:54;;;;;;;6.60;6.10;;;18.70;99.90;;;;;;5073619;28;20701;-74
2022/07/24 03:28:20;;;;;;;9.73;7.27;;;18.70;99.90;;;;;;5073707;28;20728;-74
2022/07/24 03:30:46;;;;;;;7.30;6.47;;;18.80;99.90;;;;;;5074944;28;20563;-74
2022/07/24 03:33:13;;;;;;;13.80;6.90;;;18.80;99.90;;;;;;5074686;28;20637;-74
2022/07/24 03:35:39;;;;;;;6.43;5.93;;;18.70;99.90;;;;;;5074352;28;20604;-74
2022/07/24 03:38:05;;;;;;;7.87;7.07;;;18.70;99.90;;;;;;5074388;28;20598;-74
2022/07/24 03:40:31;;;;;;;6.87;6.27;;;18.70;99.90;;;;;;5075432;28;20589;-74
2022/07/24 03:42:58;;;;;;;9.53;6.60;;;18.80;99.90;;;;;;5074342;28;20606;-74
2022/07/24 03:45:24;;;;;;;8.00;7.20;;;18.90;99.90;;;;;;5073514;28;20636;-74
2022/07/24 03:47:50;;;;;;;6.80;6.30;;;19.10;99.90;;;;;;5074869;28;20621;-74
2022/07/24 03:50:16;;;;;;;7.60;6.47;;;19.30;99.90;;;;;;5076706;28;20617;-74
2022/07/24 03:52:43;;;;;;;7.20;6.60;;;19.40;99.90;;;;;;5077914;28;20637;-74
2022/07/24 03:55:09;;;;;;;8.07;7.30;;;19.40;99.90;;;;;;5078697;28;20567;-74
2022/07/24 03:57:36;;;;;;;7.00;6.40;;;19.30;99.90;;;;;;5077964;28;20579;-74
2022/07/24 04:00:04;;;;;;;7.17;6.47;;;19.10;99.90;;;;;;5077353;28;20668;-74
2022/07/24 04:02:31;;;;;;;7.73;6.87;;;18.80;99.90;;;;;;5077977;28;21124;-74
2022/07/24 04:04:57;;;;;;;7.07;6.53;;;18.70;99.90;;;;;;5077847;28;20993;-74
2022/07/24 04:07:24;;;;;;;7.30;6.67;;;18.60;99.90;;;;;;5079232;28;20590;-74
2022/07/24 04:09:50;;;;;;;7.97;7.20;;;18.50;99.90;;;;;;5079358;28;20638;-74
2022/07/24 04:12:17;;;;;;;7.20;6.37;;;18.60;99.90;;;;;;5079879;28;20586;-74
2022/07/24 04:14:43;;;;;;;6.87;6.27;;;18.50;99.90;;;;;;5075555;28;20681;-74
2022/07/24 04:17:10;;;;;;;7.20;6.70;;;18.40;99.90;;;;;;5078711;28;21132;-73
2022/07/24 04:19:36;;;;;;;7.23;6.60;;;18.50;99.90;;;;;;5080702;28;20586;-73
2022/07/24 04:22:03;;;;;;;7.53;6.40;;;18.50;99.90;;;;;;5080322;28;20571;-73
2022/07/24 04:24:29;;;;;;;7.97;7.23;;;18.60;99.90;;;;;;5079533;28;20656;-73
2022/07/24 04:26:56;;;;;;;8.80;8.00;;;18.20;99.90;;;;;;5063183;28;21207;-73
2022/07/24 04:29:23;;;;;;;8.97;7.97;;;18.20;99.90;;;;;;5076395;28;20587;-73
2022/07/24 04:31:49;;;;;;;8.80;7.87;;;18.00;99.90;;;;;;5076350;28;20574;-74
2022/07/24 04:34:16;;;;;;;8.77;7.97;;;18.00;99.90;;;;;;5077000;28;21226;-74
2022/07/24 04:36:43;;;;;;;9.27;7.87;;;18.00;99.90;;;;;;5077310;28;20668;-73
2022/07/24 04:39:09;;;;;;;10.23;8.30;;;18.10;99.90;;;;;;5075367;28;20578;-73
2022/07/24 04:41:36;;;;;;;8.80;7.90;;;18.20;99.90;;;;;;5076995;28;20589;-74
2022/07/24 04:44:02;;;;;;;9.93;8.03;;;18.30;99.90;;;;;;5058588;28;20618;-74
2022/07/24 04:46:29;;;;;;;10.30;8.70;;;18.30;99.90;;;;;;5076862;28;20574;-75
2022/07/24 04:48:55;;;;;;;9.80;9.00;;;18.30;99.90;;;;;;5082889;28;20657;-74
2022/07/24 04:51:22;;;;;;;10.03;9.23;;;18.30;99.90;;;;;;5078070;28;21007;-74
2022/07/24 04:53:52;;;;;;;12.23;8.90;;;18.30;99.90;;;;;;5077686;28;20851;-74
2022/07/24 04:56:20;;;;;;;9.83;8.90;;;18.30;99.90;;;;;;5077168;28;20574;-74
2022/07/24 04:58:47;;;;;;;11.50;8.40;;;18.20;99.90;;;;;;5075804;28;20570;-74
2022/07/24 05:01:14;;;;;;;9.90;9.03;;;18.30;99.90;;;;;;5076561;28;21095;-74
2022/07/24 05:03:41;;;;;;;8.30;7.70;;;18.30;99.90;;;;;;5077455;28;20988;-74
2022/07/24 05:06:07;;;;;;;9.47;8.50;;;18.30;99.90;;;;;;5076503;28;20661;-73
2022/07/24 05:08:34;;;;;;;8.63;7.97;;;18.40;99.90;;;;;;5075660;28;20574;-74
2022/07/24 05:11:00;;;;;;;9.73;8.83;;;18.40;99.90;;;;;;5076687;28;20570;-73
2022/07/24 05:13:27;;;;;;;10.57;8.00;;;18.50;99.90;;;;;;5076615;28;20729;-75
2022/07/24 05:15:55;;;;;;;10.23;8.00;;;18.60;99.90;;;;;;5076805;28;20621;-74
2022/07/24 05:18:21;;;;;;;13.33;7.73;;;18.70;99.90;;;;;;5077503;28;20671;-74
2022/07/24 05:20:47;;;;;;;9.53;8.63;;;18.90;99.90;;;;;;5077134;28;20566;-73
2022/07/24 05:23:14;;;;;;;9.70;8.90;;;18.90;99.90;;;;;;5079713;28;20601;-74
2022/07/24 05:25:40;;;;;;;8.17;7.37;;;19.10;99.90;;;;;;5080048;28;20719;-74
2022/07/24 05:28:07;;;;;;;9.63;8.57;;;19.20;99.90;;;;;;5079444;28;20649;-74
2022/07/24 05:30:33;;;;;;;8.77;8.07;;;19.30;99.90;;;;;;5078175;28;20655;-74
2022/07/24 05:33:00;;;;;;;9.87;7.97;;;19.30;99.90;;;;;;5078324;28;21047;-74
2022/07/24 05:35:26;;;;;;;9.83;9.03;;;19.50;99.90;;;;;;5076112;28;20571;-74
2022/07/24 05:37:53;;;;;;;8.73;7.93;;;19.60;99.90;;;;;;5075565;28;20578;-74
2022/07/24 05:40:19;;;;;;;9.10;8.17;;;19.70;99.90;;;;;;5075792;28;20575;-74
2022/07/24 05:42:46;;;;;;;9.30;8.40;;;19.70;99.90;;;;;;5076208;28;20636;-73
2022/07/24 05:45:12;;;;;;;8.10;7.50;;;19.70;99.90;;;;;;5075537;28;20575;-73
2022/07/24 05:47:41;;;;;;;8.33;7.63;;;19.80;99.90;;;;;;5074968;28;20570;-74
2022/07/24 05:50:09;;;;;;;9.23;8.47;;;19.90;99.90;;;;;;5075043;28;20602;-74
2022/07/24 05:52:36;;;;;;;9.27;8.47;;;20.00;99.90;;;;;;5074980;28;20586;-73
2022/07/24 05:55:04;;;;;;;8.77;8.13;;;20.10;99.90;;;;;;5075193;28;21025;-73
2022/07/24 05:57:30;;;;;;;7.63;7.03;;;20.20;99.90;;;;;;5056884;28;20672;-74
2022/07/24 05:59:57;;;;;;;7.83;7.23;;;20.30;99.90;;;;;;5075169;28;20622;-74
2022/07/24 06:02:23;;;;;;;11.70;7.73;;;20.50;99.90;;;;;;5075135;28;20585;-74
2022/07/24 06:04:50;;;;;;;8.90;8.00;;;20.70;99.90;;;;;;5075061;28;20668;-73
2022/07/24 06:07:16;;;;;;;8.50;7.80;;;20.90;99.90;;;;;;5073802;28;20671;-74
2022/07/24 06:09:42;;;;;;;8.20;7.63;;;21.10;99.90;;;;;;5073818;28;20611;-73
2022/07/24 06:12:09;;;;;;;7.87;7.33;;;21.10;99.90;;;;;;5074129;28;20575;-73
2022/07/24 06:14:35;;;;;;;7.83;7.23;;;21.10;99.90;;;;;;5076548;28;20626;-74
2022/07/24 06:17:02;;;;;;;8.83;7.90;;;21.20;99.90;;;;;;5075554;28;20925;-73
2022/07/24 06:19:29;;;;;;;6.87;6.03;;;21.60;99.90;;;;;;5073707;28;20626;-74
2022/07/24 06:21:55;;;;;;;7.40;6.90;;;21.80;99.90;;;;;;5074195;28;20636;-73
2022/07/24 06:24:22;;;;;;;9.00;7.80;;;22.00;99.90;;;;;;5075281;28;20634;-74
2022/07/24 06:26:48;;;;;;;7.30;6.60;;;22.10;99.90;;;;;;5075497;28;20551;-73
2022/07/24 06:29:15;;;;;;;8.03;7.33;;;22.20;99.90;;;;;;5075288;28;20570;-73
2022/07/24 06:31:41;;;;;;;10.13;7.90;;;22.50;99.90;;;;;;5074829;28;20640;-72
2022/07/24 06:34:08;;;;;;;7.73;7.07;;;22.50;99.90;;;;;;5074767;28;20646;-72
2022/07/24 06:36:34;;;;;;;7.30;6.70;;;22.70;99.90;;;;;;5074764;28;20567;-72
2022/07/24 06:39:01;;;;;;;7.17;6.67;;;23.00;99.90;;;;;;5074289;28;20578;-72
2022/07/24 06:41:27;;;;;;;7.60;6.97;;;23.00;99.90;;;;;;5073767;28;20622;-73
2022/07/24 06:43:54;;;;;;;8.30;7.60;;;23.00;99.90;;;;;;5074694;28;20614;-73
2022/07/24 06:46:20;;;;;;;8.70;7.80;;;22.80;99.90;;;;;;5074611;28;20570;-73
2022/07/24 06:48:46;;;;;;;8.30;7.43;;;23.00;99.90;;;;;;5073013;28;20626;-73
2022/07/24 06:51:13;;;;;;;10.00;7.90;;;23.30;99.90;;;;;;5073018;28;20578;-73
2022/07/24 06:53:43;;;;;;;7.20;6.70;;;23.50;99.90;;;;;;5074104;28;20657;-74
2022/07/24 06:56:09;;;;;;;8.00;7.40;;;23.50;99.90;;;;;;5074205;28;20606;-74
2022/07/24 06:58:36;;;;;;;7.80;7.30;;;23.60;99.90;;;;;;5074135;28;20550;-74
2022/07/24 07:01:02;;;;;;;7.83;7.10;;;23.80;99.90;;;;;;5073565;28;20567;-74
2022/07/24 07:03:29;;;;;;;8.20;7.37;;;23.80;99.90;;;;;;5072455;28;20636;-74
2022/07/24 07:05:55;;;;;;;8.57;7.73;;;23.90;99.90;;;;;;5055900;28;20658;-74
2022/07/24 07:08:22;;;;;;;8.20;7.70;;;23.90;99.90;;;;;;5072399;28;21007;-74
2022/07/24 07:10:48;;;;;;;8.50;7.80;;;24.00;99.90;;;;;;5074172;28;20960;-74
2022/07/24 07:13:15;;;;;;;10.43;7.20;;;24.10;99.90;;;;;;5074079;28;20578;-73
2022/07/24 07:15:42;;;;;;;8.30;7.50;;;24.10;99.90;;;;;;5073678;28;20566;-73
2022/07/24 07:18:08;;;;;;;9.30;7.23;;;24.20;99.90;;;;;;5073637;28;20614;-73
2022/07/24 07:20:35;;;;;;;8.47;7.60;;;24.20;99.90;;;;;;5073953;28;20614;-74
2022/07/24 07:23:01;;;;;;;7.43;6.93;;;24.00;99.90;;;;;;5073136;28;20609;-74
2022/07/24 07:25:27;;;;;;;7.97;7.47;;;24.10;99.90;;;;;;5074134;28;20622;-74
2022/07/24 07:27:54;;;;;;;7.87;7.27;;;23.90;99.90;;;;;;5074201;28;20610;-74
2022/07/24 07:30:21;;;;;;;8.23;7.43;;;24.00;99.90;;;;;;5073511;28;20606;-74
2022/07/24 07:32:47;;;;;;;7.93;7.23;;;23.70;99.90;;;;;;5073830;28;20688;-74
2022/07/24 07:35:14;;;;;;;7.53;6.93;;;24.00;99.90;;;;;;5072245;28;20625;-74
2022/07/24 07:37:40;;;;;;;7.17;6.77;;;24.20;99.90;;;;;;5055550;28;20614;-74
2022/07/24 07:40:07;;;;;;;7.73;7.13;;;24.20;99.90;;;;;;5073801;28;21105;-74
2022/07/24 07:42:33;;;;;;;7.93;7.33;;;24.30;99.90;;;;;;5073260;28;20578;-74
2022/07/24 07:44:59;;;;;;;8.40;7.27;;;24.30;99.90;;;;;;5074008;28;20590;-74
2022/07/24 07:47:26;;;;;;;8.00;7.30;;;24.50;99.90;;;;;;5073333;28;20713;-74
2022/07/24 07:49:52;;;;;;;8.27;7.53;;;24.70;99.90;;;;;;5072133;28;21223;-72
2022/07/24 07:52:19;;;;;;;7.60;7.00;;;24.80;99.90;;;;;;5073259;28;20612;-74
2022/07/24 07:54:45;;;;;;;8.60;8.00;;;24.90;99.90;;;;;;5072466;28;20665;-74
2022/07/24 07:57:11;;;;;;;8.13;7.43;;;24.70;99.90;;;;;;5073579;28;20947;-74
2022/07/24 07:59:38;;;;;;;8.63;7.77;;;24.50;99.90;;;;;;5073592;28;20583;-74
2022/07/24 08:02:04;;;;;;;8.83;8.13;;;24.80;99.90;;;;;;5073455;28;21182;-74
2022/07/24 08:04:30;;;;;;;9.23;8.33;;;24.60;99.90;;;;;;5073143;28;20646;-74
2022/07/24 08:06:57;;;;;;;8.60;8.00;;;24.60;99.90;;;;;;5071623;28;20618;-74
2022/07/24 08:09:23;;;;;;;8.47;7.87;;;24.80;99.90;;;;;;5073090;28;20590;-74
2022/07/24 08:11:49;;;;;;;8.40;7.83;;;25.00;99.90;;;;;;5073281;28;20605;-74
2022/07/24 08:14:16;;;;;;;9.80;8.20;;;24.70;99.90;;;;;;5071286;28;20658;-74
2022/07/24 08:16:42;;;;;;;8.17;7.53;;;24.90;99.90;;;;;;5072972;28;20606;-74
2022/07/24 08:19:09;;;;;;;8.90;8.10;;;25.10;99.90;;;;;;5072797;28;20583;-76
2022/07/24 08:21:35;;;;;;;9.20;8.40;;;25.10;99.90;;;;;;5073538;28;20563;-75
2022/07/24 08:24:03;;;;;;;8.30;7.60;;;25.30;99.90;;;;;;5073495;28;20634;-74
2022/07/24 08:26:30;;;;;;;8.00;7.50;;;25.50;99.90;;;;;;5071691;28;21301;-73
2022/07/24 08:28:58;;;;;;;8.60;7.80;;;25.70;99.90;;;;;;5073079;28;20919;-73
2022/07/24 08:31:28;;;;;;;9.10;8.30;;;25.60;99.90;;;;;;5073765;28;20644;-71
2022/07/24 08:33:54;;;;;;;8.87;8.23;;;25.60;99.90;;;;;;5076193;28;20638;-71
2022/07/24 08:36:21;;;;;;;8.93;8.23;;;25.70;99.90;;;;;;5077617;28;20586;-71
2022/07/24 08:38:47;;;;;;;9.03;8.10;;;25.80;99.90;;;;;;5077703;28;20629;-71
2022/07/24 08:41:14;;;;;;;8.27;7.77;;;25.90;99.90;;;;;;5075577;28;20622;-72
2022/07/24 08:43:41;;;;;;;9.43;8.63;;;25.80;99.90;;;;;;5077033;28;20625;-72
2022/07/24 08:46:11;;;;;;;9.73;9.03;;;25.80;99.90;;;;;;5077199;28;20621;-72
2022/07/24 08:48:45;;;;;;;8.80;8.20;;;25.80;99.90;;;;;;5077523;28;20633;-72
2022/07/24 08:51:15;;;;;;;9.87;9.27;;;25.90;99.90;;;;;;5078129;28;20614;-72
2022/07/24 08:53:43;;;;;;;9.40;8.80;;;26.10;99.90;;;;;;5077236;28;20635;-71
2022/07/24 08:56:10;;;;;;;9.13;8.53;;;26.10;99.90;;;;;;5077808;28;20918;-71
2022/07/24 08:58:41;;;;;;;9.50;8.80;;;26.50;99.90;;;;;;5077177;28;20622;-73
2022/07/24 09:01:08;;;;;;;9.37;8.53;;;26.80;99.90;;;;;;5077035;28;20559;-70
2022/07/24 09:03:45;;;;;;;10.00;9.20;;;26.50;99.90;;;;;;5074822;28;20683;-72
2022/07/24 09:06:14;;;;;;;8.53;7.83;;;26.50;99.90;;;;;;5076335;28;20654;-71
2022/07/24 09:08:42;;;;;;;9.90;9.10;;;26.40;99.90;;;;;;5076650;28;20615;-72
2022/07/24 09:11:09;;;;;;;9.13;8.40;;;26.60;99.90;;;;;;5076979;28;20585;-71
2022/07/24 09:16:24;;;;;;;9.20;8.60;;;26.00;99.90;;;;;;5076177;28;20586;-71
2022/07/24 09:19:02;;;;;;;8.97;8.27;;;26.30;99.90;;;;;;5076466;28;20622;-71
2022/07/24 09:21:33;;;;;;;10.03;9.07;;;26.60;99.90;;;;;;5076326;28;20567;-71
2022/07/24 09:24:02;;;;;;;9.40;8.83;;;26.60;99.90;;;;;;5077030;28;20699;-72
2022/07/24 09:26:52;;;;;;;8.80;8.20;;;27.00;99.90;;;;;;5075745;28;21144;-72
2022/07/24 09:29:20;;;;;;;12.83;9.27;;;27.00;99.90;;;;;;5074246;28;21225;-72
2022/07/24 09:32:01;;;;;;;9.57;8.97;;;27.20;99.90;;;;;;5075500;28;20582;-72
2022/07/24 09:34:38;;;;;;;8.83;8.23;;;27.00;99.90;;;;;;5075554;28;20658;-71
2022/07/24 09:37:07;;;;;;;8.57;7.97;;;27.20;99.90;;;;;;5075329;28;20570;-71
2022/07/24 09:39:36;;;;;;;9.23;8.53;;;27.80;99.90;;;;;;5075203;28;21181;-72
2022/07/24 09:42:05;;;;;;;8.57;8.07;;;27.80;99.90;;;;;;5074799;28;20974;-70
2022/07/24 09:44:32;;;;;;;9.93;9.20;;;27.30;99.90;;;;;;5074260;28;20614;-70
2022/07/24 09:47:02;;;;;;;9.80;9.00;;;27.40;99.90;;;;;;5074602;28;20637;-71
2022/07/24 09:49:30;;;;;;;9.17;8.40;;;27.90;99.90;;;;;;5073301;28;20988;-72
2022/07/24 09:52:05;;;;;;;10.13;9.43;;;27.90;99.90;;;;;;5074478;28;21007;-71
2022/07/24 09:54:36;;;;;;;9.10;8.50;;;27.80;99.90;;;;;;5074912;28;20789;-71
2022/07/24 09:57:18;;;;;;;8.83;8.23;;;27.90;99.90;;;;;;5074556;28;20958;-71
2022/07/24 09:59:47;;;;;;;8.67;7.93;;;28.20;99.90;;;;;;5074896;28;20708;-72
2022/07/24 10:02:15;;;;;;;8.93;8.43;;;28.10;99.90;;;;;;5074584;28;20578;-72
2022/07/24 10:04:43;;;;;;;9.27;8.57;;;28.30;99.90;;;;;;5074516;28;20723;-72
2022/07/24 10:07:11;;;;;;;9.27;8.77;;;28.00;99.90;;;;;;5074610;28;20602;-72
2022/07/24 10:09:42;;;;;;;9.07;8.37;;;28.20;99.90;;;;;;5074831;28;20641;-72
2022/07/24 10:12:30;;;;;;;9.23;8.63;;;28.00;99.90;;;;;;5074672;28;20570;-72
2022/07/24 10:14:59;;;;;;;9.13;8.50;;;28.30;99.90;;;;;;5073488;28;21195;-72
2022/07/24 10:17:50;;;;;;;9.00;8.40;;;29.00;99.90;;;;;;5074018;28;20614;-72
2022/07/24 10:20:39;;;;;;;9.00;8.40;;;28.60;99.90;;;;;;5074320;28;20594;-72
2022/07/24 10:23:06;;;;;;;8.63;8.13;;;28.70;99.90;;;;;;5074593;28;20627;-72
2022/07/24 10:26:06;;;;;;;9.33;8.63;;;28.80;99.90;;;;;;5074345;28;20646;-72
2022/07/24 10:28:39;;;;;;;8.20;7.70;;;29.00;99.90;;;;;;5072666;28;20660;-72
2022/07/24 10:31:09;;;;;;;9.00;8.40;;;28.90;99.90;;;;;;5074363;28;20587;-72
2022/07/24 10:33:38;;;;;;;8.70;8.17;;;28.70;99.90;;;;;;5074349;28;20578;-72
2022/07/24 10:36:13;;;;;;;9.47;8.63;;;29.10;99.90;;;;;;5074157;28;20618;-72
2022/07/24 10:38:45;;;;;;;9.23;8.67;;;29.20;99.90;;;;;;5073452;28;20613;-71
2022/07/24 10:41:23;;;;;;;9.23;8.73;;;29.50;99.90;;;;;;5073675;28;20626;-71
2022/07/24 10:44:14;;;;;;;8.60;8.00;;;30.00;99.90;;;;;;5073794;28;20640;-71
2022/07/24 10:47:22;;;;;;;8.53;7.93;;;29.90;99.90;;;;;;5074133;28;20611;-71
2022/07/24 10:49:50;;;;;;;8.33;7.80;;;29.70;99.90;;;;;;5073624;28;20965;-71
2022/07/24 10:52:28;;;;;;;8.60;8.00;;;29.70;99.90;;;;;;5073895;28;20581;-71
2022/07/24 10:55:31;;;;;;;8.30;7.80;;;29.80;99.90;;;;;;5073705;28;21148;-71
2022/07/24 10:58:10;;;;;;;8.77;8.27;;;30.50;99.90;;;;;;5073594;28;20613;-72
2022/07/24 11:00:40;;;;;;;8.90;8.30;;;31.10;99.90;;;;;;5074236;28;20575;-72
2022/07/24 11:03:28;;;;;;;9.57;9.07;;;30.50;99.90;;;;;;5072377;28;20659;-71
2022/07/24 11:06:11;;;;;;;8.80;8.30;;;30.70;99.90;;;;;;5073383;28;20642;-71
2022/07/24 11:09:01;;;;;;;9.17;8.27;;;31.00;99.90;;;;;;5071838;28;20617;-72
2022/07/24 11:11:27;;;;;;;8.80;8.30;;;30.00;99.90;;;;;;5074150;28;21137;-73
2022/07/24 11:13:57;;;;;;;9.60;9.00;;;30.20;99.90;;;;;;5076975;28;20739;-72
2022/07/24 11:16:25;;;;;;;8.97;8.47;;;30.80;99.90;;;;;;5073896;28;20617;-71
2022/07/24 11:18:52;;;;;;;9.10;8.50;;;31.00;99.90;;;;;;5073420;28;20982;-72
2022/07/24 11:21:28;;;;;;;8.70;8.10;;;31.30;99.90;;;;;;5073498;28;20571;-72
2022/07/24 11:24:16;;;;;;;8.60;8.00;;;31.70;99.90;;;;;;5076718;28;20646;-71
2022/07/24 11:26:46;;;;;;;8.53;8.13;;;31.10;99.90;;;;;;5073258;28;20971;-70
2022/07/24 11:29:18;;;;;;;8.27;7.77;;;31.30;99.90;;;;;;5073544;28;20592;-71
2022/07/24 11:31:47;;;;;;;9.40;8.70;;;32.30;99.90;;;;;;5074403;28;20734;-71
2022/07/24 11:34:14;;;;;;;10.00;9.30;;;33.10;99.90;;;;;;5073837;28;20658;-71
2022/07/24 11:36:45;;;;;;;9.20;8.70;;;33.90;99.90;;;;;;5074106;28;20574;-71
2022/07/24 11:39:11;;;;;;;9.57;8.97;;;33.70;99.90;;;;;;5072332;28;20626;-72
2022/07/24 11:41:53;;;;;;;9.33;8.73;;;33.40;99.90;;;;;;5073892;28;20563;-72
2022/07/24 11:44:28;;;;;;;9.43;8.93;;;32.70;99.90;;;;;;5073765;28;21174;-72
2022/07/24 11:46:57;;;;;;;9.30;8.90;;;32.00;99.90;;;;;;5071905;28;21036;-72
2022/07/24 11:49:25;;;;;;;8.97;8.57;;;31.90;99.90;;;;;;5073368;28;21016;-72
2022/07/24 11:51:53;;;;;;;9.63;9.03;;;31.60;99.90;;;;;;5073180;28;20618;-72
2022/07/24 11:54:27;;;;;;;9.67;9.07;;;32.20;99.90;;;;;;5073240;28;20676;-72
2022/07/24 11:56:56;;;;;;;9.20;8.70;;;32.80;99.90;;;;;;5073428;28;20632;-72
2022/07/24 11:59:31;;;;;;;9.27;8.57;;;32.90;99.90;;;;;;5073399;28;20629;-72
2022/07/24 12:02:10;;;;;;;9.27;8.73;;;33.10;99.90;;;;;;5073936;28;20600;-72
2022/07/24 12:04:42;;;;;;;9.30;8.80;;;33.30;99.90;;;;;;5073262;28;20653;-72
2022/07/24 12:07:14;;;;;;;9.57;9.00;;;34.10;99.90;;;;;;5073285;28;20949;-72
2022/07/24 12:09:55;;;;;;;9.77;9.27;;;34.20;99.90;;;;;;5076674;28;20625;-72
2022/07/24 12:12:27;;;;;;;10.77;10.07;;;33.90;99.90;;;;;;5077385;28;20582;-72
2022/07/24 12:15:03;;;;;;;9.90;9.40;;;34.90;99.90;;;;;;5076896;28;20676;-71
2022/07/24 12:17:33;;;;;;;9.50;9.00;;;35.30;99.90;;;;;;5076659;28;20641;-71
2022/07/24 12:20:01;;;;;;;9.77;9.27;;;34.90;99.90;;;;;;5077246;28;20582;-71
2022/07/24 12:22:28;;;;;;;9.63;9.13;;;33.90;99.90;;;;;;5077159;28;21109;-71
2022/07/24 12:24:57;;;;;;;9.50;9.00;;;34.60;99.90;;;;;;5077046;28;20669;-71
2022/07/24 12:27:43;;;;;;;9.40;9.00;;;34.50;99.90;;;;;;5077058;28;20614;-73
2022/07/24 12:30:20;;;;;;;9.53;9.10;;;34.60;99.90;;;;;;5075815;28;20619;-71
2022/07/24 12:32:57;;;;;;;9.50;8.90;;;35.40;99.90;;;;;;5076958;28;20594;-71
2022/07/24 12:35:24;;;;;;;8.83;8.43;;;35.40;99.90;;;;;;5076664;28;20663;-71
2022/07/24 12:37:52;;;;;;;8.97;8.50;;;36.60;99.90;;;;;;5076248;28;20628;-70
2022/07/24 12:40:44;;;;;;;9.90;9.40;;;35.20;99.90;;;;;;5076295;28;20582;-72
2022/07/24 12:43:12;;;;;;;10.83;10.13;;;35.40;99.90;;;;;;5076164;28;21036;-72
2022/07/24 12:45:39;;;;;;;10.27;9.77;;;34.30;99.90;;;;;;5075463;28;20642;-72
2022/07/24 12:48:08;;;;;;;10.07;9.57;;;33.90;99.90;;;;;;5076801;28;20961;-72
2022/07/24 12:50:36;;;;;;;9.63;9.13;;;34.60;99.90;;;;;;5075846;28;20659;-71
2022/07/24 12:53:07;;;;;;;10.13;9.63;;;36.20;99.90;;;;;;5076276;28;20575;-70
2022/07/24 12:55:35;;;;;;;10.10;9.43;;;35.50;99.90;;;;;;5076109;28;20639;-69